Time;durP1;ratioP1;P1;durP2;ratioP2;P2;SDS_P1;SDS_P2;PMS_P1;PMS_P2;Temp;Humidity;BMP_temperature;BMP_pressure;BME280_temperature;BME280_humidity;BME280_pressure;Samples;Min_cycle;Max_cycle;Signal;HPM_P1;HPM_P2
2023/01/29 00:00:17;;;;;;;25.73;16.70;;;3.40;99.90;;;;;;5056044;28;20055;-82
2023/01/29 00:02:42;;;;;;;24.02;14.65;;;3.40;99.90;;;;;;5051018;28;20059;-81
2023/01/29 00:05:08;;;;;;;24.00;14.13;;;3.50;99.90;;;;;;5055810;28;20472;-82
2023/01/29 00:07:34;;;;;;;32.58;21.77;;;3.40;99.90;;;;;;5068910;28;20050;-82
2023/01/29 00:10:00;;;;;;;39.20;27.80;;;3.50;99.90;;;;;;5072888;28;20035;-82
2023/01/29 00:12:25;;;;;;;40.70;28.58;;;3.50;99.90;;;;;;5037895;28;20048;-82
2023/01/29 00:14:51;;;;;;;27.08;16.85;;;3.50;99.90;;;;;;5080454;28;20641;-82
2023/01/29 00:17:17;;;;;;;27.67;19.15;;;3.50;99.90;;;;;;5072149;28;20054;-84
2023/01/29 00:19:42;;;;;;;28.70;17.88;;;3.50;99.90;;;;;;5062901;28;20103;-83
2023/01/29 00:22:08;;;;;;;28.73;18.83;;;3.50;99.90;;;;;;5038494;28;20084;-82
2023/01/29 00:24:34;;;;;;;28.95;16.15;;;3.50;99.90;;;;;;5040913;28;20051;-83
2023/01/29 00:26:59;;;;;;;35.15;20.88;;;3.60;99.90;;;;;;5048670;28;20483;-84
2023/01/29 00:29:25;;;;;;;34.28;19.10;;;3.50;99.90;;;;;;5066923;28;20048;-85
2023/01/29 00:31:51;;;;;;;28.85;18.65;;;3.50;99.90;;;;;;5100856;28;20048;-83
2023/01/29 00:34:17;;;;;;;81.97;44.90;;;3.70;99.90;;;;;;5039843;28;20063;-82
2023/01/29 00:36:44;;;;;;;38.47;27.33;;;3.50;99.90;;;;;;5070454;28;20052;-82
2023/01/29 00:39:10;;;;;;;26.33;17.33;;;3.60;99.90;;;;;;5064781;28;20134;-82
2023/01/29 00:47:29;;;;;;;31.90;20.63;;;3.60;99.90;;;;;;5095752;28;20803;-82
2023/01/29 00:49:52;;;;;;;29.85;16.90;;;3.60;99.90;;;;;;5079938;28;20075;-81
2023/01/29 00:52:23;;;;;;;27.05;16.83;;;3.60;99.90;;;;;;5068006;28;20140;-83
2023/01/29 00:54:54;;;;;;;31.35;20.23;;;3.60;99.90;;;;;;5062534;28;20040;-85
2023/01/29 00:57:19;;;;;;;29.00;18.27;;;3.60;99.90;;;;;;5067519;28;20055;-82
2023/01/29 00:59:45;;;;;;;34.67;21.80;;;3.60;99.90;;;;;;5072376;28;20047;-84
2023/01/29 01:04:55;;;;;;;29.77;17.50;;;3.60;99.90;;;;;;5079451;28;20058;-81
2023/01/29 01:07:21;;;;;;;29.73;18.23;;;3.60;99.90;;;;;;5039743;28;20036;-81
2023/01/29 01:12:31;;;;;;;28.35;18.45;;;3.60;99.90;;;;;;5077566;28;20040;-81
2023/01/29 01:14:57;;;;;;;29.30;18.00;;;3.60;99.90;;;;;;5090226;28;20046;-82
2023/01/29 01:17:23;;;;;;;29.65;19.95;;;3.60;99.90;;;;;;5075168;28;20035;-81
2023/01/29 01:19:49;;;;;;;36.28;20.20;;;3.60;99.90;;;;;;5059439;28;20050;-83
2023/01/29 01:22:15;;;;;;;29.67;19.13;;;3.60;99.90;;;;;;5075706;28;20036;-83
2023/01/29 01:24:41;;;;;;;34.38;20.75;;;3.60;99.90;;;;;;5086610;28;20044;-82
2023/01/29 01:27:07;;;;;;;28.27;19.10;;;3.60;99.90;;;;;;5063929;27;20055;-81
2023/01/29 01:29:33;;;;;;;33.60;20.45;;;3.70;99.90;;;;;;5075683;28;20126;-82
2023/01/29 01:31:59;;;;;;;29.50;18.70;;;3.70;99.90;;;;;;5076991;28;20174;-82
2023/01/29 01:34:26;;;;;;;30.48;20.25;;;3.60;99.90;;;;;;5062526;28;20079;-81
2023/01/29 01:36:52;;;;;;;31.33;19.77;;;3.70;99.90;;;;;;5062242;28;20087;-81
2023/01/29 01:39:18;;;;;;;35.15;19.73;;;3.80;99.90;;;;;;5077783;28;20093;-81
2023/01/29 01:41:45;;;;;;;29.73;18.98;;;3.70;99.90;;;;;;5082810;28;20036;-82
2023/01/29 01:44:48;;;;;;;36.05;21.42;;;3.70;99.90;;;;;;5077566;28;20084;-82
2023/01/29 01:47:16;;;;;;;31.48;19.67;;;3.70;99.90;;;;;;5087088;28;20035;-82
2023/01/29 01:49:43;;;;;;;33.92;21.13;;;3.70;99.90;;;;;;5084935;28;20035;-82
2023/01/29 01:52:10;;;;;;;36.63;21.77;;;3.60;99.90;;;;;;5085281;28;20065;-82
2023/01/29 01:54:35;;;;;;;34.33;21.17;;;3.70;99.90;;;;;;5069259;28;20128;-89
2023/01/29 01:57:14;;;;;;;36.63;22.38;;;3.70;99.90;;;;;;5064044;28;20763;-82
2023/01/29 01:59:45;;;;;;;31.92;21.40;;;3.70;99.90;;;;;;5070426;28;20059;-86
2023/01/29 02:10:39;;;;;;;37.35;22.00;;;3.60;99.90;;;;;;5097996;28;20048;-82
2023/01/29 02:13:06;;;;;;;37.40;22.10;;;3.50;99.90;;;;;;5065913;28;20048;-82
2023/01/29 02:15:32;;;;;;;35.05;22.58;;;3.60;99.90;;;;;;5045133;28;20504;-82
2023/01/29 02:17:58;;;;;;;36.80;21.42;;;3.60;99.90;;;;;;5079969;28;20068;-82
2023/01/29 02:20:27;;;;;;;39.70;23.48;;;3.60;99.90;;;;;;5069169;28;20082;-83
2023/01/29 02:22:54;;;;;;;34.13;22.00;;;3.60;99.90;;;;;;5094727;28;20447;-83
2023/01/29 02:25:53;;;;;;;32.42;20.52;;;3.60;99.90;;;;;;5095420;28;20048;-84
2023/01/29 02:28:39;;;;;;;35.08;22.48;;;3.60;99.90;;;;;;5080573;28;20054;-84
2023/01/29 02:31:11;;;;;;;34.53;20.65;;;3.60;99.90;;;;;;5074863;28;20132;-81
2023/01/29 02:33:36;;;;;;;34.60;21.13;;;3.60;99.90;;;;;;5070365;28;20079;-82
2023/01/29 02:36:59;;;;;;;32.45;20.52;;;3.60;99.90;;;;;;5060349;28;20101;-83
2023/01/29 02:39:49;;;;;;;32.92;20.45;;;3.60;99.90;;;;;;4994518;28;20056;-82
2023/01/29 02:42:30;;;;;;;35.67;20.52;;;3.60;99.90;;;;;;5014199;28;20060;-84
2023/01/29 02:45:08;;;;;;;34.60;21.15;;;3.70;99.90;;;;;;5048512;28;20059;-82
2023/01/29 02:47:44;;;;;;;33.47;20.85;;;3.60;99.90;;;;;;5075386;28;20051;-82
2023/01/29 02:50:42;;;;;;;33.50;21.40;;;3.70;99.90;;;;;;5074998;28;20051;-83
2023/01/29 02:53:26;;;;;;;35.30;20.90;;;3.60;99.90;;;;;;5084505;28;20486;-81
2023/01/29 02:55:54;;;;;;;35.50;21.20;;;3.60;99.90;;;;;;5085652;28;20370;-82
2023/01/29 02:58:33;;;;;;;33.85;20.98;;;3.70;99.90;;;;;;5066855;28;20043;-84
2023/01/29 03:01:13;;;;;;;34.38;20.58;;;3.70;99.90;;;;;;5076339;28;20553;-83
2023/01/29 03:03:42;;;;;;;37.53;20.02;;;3.70;99.90;;;;;;5080131;28;20043;-84
2023/01/29 03:06:27;;;;;;;35.75;20.83;;;3.70;99.90;;;;;;5092482;28;20054;-83
2023/01/29 03:09:00;;;;;;;37.22;21.00;;;3.80;99.90;;;;;;5076482;28;20474;-82
2023/01/29 03:11:41;;;;;;;32.10;19.17;;;3.70;99.90;;;;;;5062073;28;20051;-82
2023/01/29 03:14:15;;;;;;;31.52;19.10;;;3.70;99.90;;;;;;5084946;28;20155;-85
2023/01/29 03:16:47;;;;;;;34.10;20.20;;;3.70;99.90;;;;;;5060155;28;20059;-82
2023/01/29 03:19:18;;;;;;;31.65;19.45;;;3.80;99.90;;;;;;5086307;28;20043;-82
2023/01/29 03:21:49;;;;;;;31.48;19.60;;;3.80;99.90;;;;;;5065374;28;20062;-88
2023/01/29 03:32:40;;;;;;;;;;;3.80;99.90;;;;;;5085926;28;20048;-81
2023/01/29 03:35:08;;;;;;;31.92;18.95;;;3.80;99.90;;;;;;5090930;28;20360;-82
2023/01/29 03:37:40;;;;;;;28.77;18.65;;;3.80;99.90;;;;;;5075974;28;20059;-83
2023/01/29 03:40:08;;;;;;;30.00;18.45;;;3.90;99.90;;;;;;5085412;28;20035;-83
2023/01/29 03:42:33;;;;;;;31.52;19.13;;;3.80;99.90;;;;;;5043644;28;20063;-81
2023/01/29 03:45:11;;;;;;;31.60;19.80;;;3.80;99.90;;;;;;5094027;28;20043;-82
2023/01/29 03:47:48;;;;;;;29.35;18.63;;;3.80;99.90;;;;;;5064430;28;20051;-83
2023/01/29 03:50:31;;;;;;;31.77;17.95;;;3.80;99.90;;;;;;5072423;28;20489;-82
2023/01/29 03:53:43;;;;;;;31.58;18.98;;;3.80;99.90;;;;;;5075495;28;20048;-84
2023/01/29 03:56:35;;;;;;;33.40;18.27;;;3.80;99.90;;;;;;4992665;28;20050;-82
2023/01/29 03:59:04;;;;;;;31.63;19.33;;;3.80;99.90;;;;;;4996193;28;20144;-82
2023/01/29 04:01:41;;;;;;;27.17;18.13;;;3.80;99.90;;;;;;5025146;28;20109;-81
2023/01/29 04:04:15;;;;;;;32.03;19.75;;;3.80;99.90;;;;;;5100800;28;20168;-82
2023/01/29 04:06:44;;;;;;;28.95;18.38;;;3.80;99.90;;;;;;5079514;28;20130;-81
2023/01/29 04:09:24;;;;;;;28.17;18.15;;;3.80;99.90;;;;;;5094150;28;20491;-82
2023/01/29 04:12:12;;;;;;;29.58;18.38;;;3.90;99.90;;;;;;5065319;28;20050;-84
2023/01/29 04:14:38;;;;;;;30.23;17.63;;;3.90;99.90;;;;;;5073604;28;20115;-81
2023/01/29 04:17:11;;;;;;;34.08;18.42;;;3.80;99.90;;;;;;5070334;28;20048;-84
2023/01/29 04:19:38;;;;;;;32.80;19.38;;;3.80;99.90;;;;;;5066968;28;20793;-81
2023/01/29 04:22:12;;;;;;;30.58;18.67;;;3.80;99.90;;;;;;5090798;28;20043;-82
2023/01/29 04:24:39;;;;;;;31.70;18.75;;;3.80;99.90;;;;;;5077305;28;20465;-81
2023/01/29 04:27:05;;;;;;;30.85;18.70;;;3.80;99.90;;;;;;5069237;28;20043;-82
2023/01/29 04:29:56;;;;;;;31.77;20.38;;;3.80;99.90;;;;;;5080153;28;20051;-83
2023/01/29 04:32:54;;;;;;;31.10;18.17;;;3.80;99.90;;;;;;5093720;28;20067;-82
2023/01/29 04:35:31;;;;;;;29.70;19.10;;;3.80;99.90;;;;;;5059978;28;20113;-82
2023/01/29 04:38:18;;;;;;;32.75;18.70;;;3.80;99.90;;;;;;5081961;28;20509;-89
2023/01/29 04:40:55;;;;;;;30.55;18.83;;;3.90;99.90;;;;;;5093782;28;20047;-85
2023/01/29 04:43:33;;;;;;;31.90;18.30;;;3.90;99.90;;;;;;5090998;28;20039;-83
2023/01/29 04:46:08;;;;;;;30.63;19.58;;;3.90;99.90;;;;;;5089538;28;20051;-88
2023/01/29 04:48:49;;;;;;;30.02;19.90;;;3.80;99.90;;;;;;5080443;28;20424;-82
2023/01/29 04:51:21;;;;;;;29.33;18.85;;;3.90;99.90;;;;;;5068771;28;20043;-83
2023/01/29 04:54:01;;;;;;;31.27;19.75;;;3.90;99.90;;;;;;5079468;28;20048;-83
2023/01/29 04:56:40;;;;;;;30.75;19.42;;;3.90;99.90;;;;;;5084340;28;20044;-83
2023/01/29 04:59:14;;;;;;;32.33;18.45;;;3.90;99.90;;;;;;5078794;28;20048;-84
2023/01/29 05:01:40;;;;;;;29.27;18.85;;;3.90;99.90;;;;;;5083513;28;20055;-83
2023/01/29 05:04:10;;;;;;;33.17;19.88;;;3.90;99.90;;;;;;5050690;28;20406;-80
2023/01/29 05:06:37;;;;;;;34.10;19.83;;;3.90;99.90;;;;;;5090453;28;20058;-81
2023/01/29 05:09:03;;;;;;;31.70;20.10;;;3.90;99.90;;;;;;5070475;28;20055;-83
2023/01/29 05:11:31;;;;;;;30.52;19.40;;;4.00;99.90;;;;;;5089007;28;20130;-81
2023/01/29 05:13:58;;;;;;;31.13;20.05;;;4.00;99.90;;;;;;5050262;28;20042;-86
2023/01/29 05:16:40;;;;;;;30.95;18.98;;;4.10;99.90;;;;;;5062919;28;20812;-82
2023/01/29 05:19:10;;;;;;;30.25;17.63;;;4.10;99.90;;;;;;5066885;28;20051;-83
2023/01/29 05:21:37;;;;;;;33.50;20.17;;;4.00;99.90;;;;;;5078539;28;20435;-81
2023/01/29 05:24:09;;;;;;;32.40;20.50;;;4.00;99.90;;;;;;5042537;28;20040;-82
2023/01/29 05:29:20;;;;;;;32.90;20.75;;;4.10;99.90;;;;;;5088449;28;20154;-81
2023/01/29 05:31:46;;;;;;;35.47;21.13;;;4.00;99.90;;;;;;5044265;28;20441;-83
2023/01/29 05:34:12;;;;;;;32.22;20.77;;;4.00;99.90;;;;;;5067396;28;20035;-82
2023/01/29 05:36:37;;;;;;;30.70;19.77;;;4.00;99.90;;;;;;5030249;28;20056;-83
2023/01/29 05:39:03;;;;;;;37.35;22.33;;;4.00;99.90;;;;;;5061584;28;20582;-82
2023/01/29 05:41:29;;;;;;;39.65;22.35;;;4.00;99.90;;;;;;5091118;28;20048;-83
2023/01/29 05:43:55;;;;;;;34.78;22.27;;;3.90;99.90;;;;;;5062560;28;20040;-82
2023/01/29 05:46:20;;;;;;;36.63;21.30;;;3.80;99.90;;;;;;5078545;28;20075;-82
2023/01/29 05:48:46;;;;;;;36.05;22.52;;;3.80;99.90;;;;;;5080286;28;20048;-83
2023/01/29 05:51:11;;;;;;;35.33;22.55;;;3.90;99.90;;;;;;5082866;28;20182;-83
2023/01/29 05:53:37;;;;;;;37.42;22.65;;;3.80;99.90;;;;;;5082531;28;20039;-83
2023/01/29 05:56:04;;;;;;;34.88;22.60;;;3.80;99.90;;;;;;5082692;28;20039;-82
2023/01/29 05:58:31;;;;;;;37.50;23.55;;;3.70;99.90;;;;;;5082052;28;20673;-82
2023/01/29 06:00:56;;;;;;;37.58;23.02;;;3.80;99.90;;;;;;5070963;28;20044;-83
2023/01/29 06:03:22;;;;;;;37.88;23.42;;;3.70;99.90;;;;;;5053896;28;20489;-83
2023/01/29 06:05:48;;;;;;;36.95;23.60;;;3.90;99.90;;;;;;5073856;28;20077;-82
2023/01/29 06:08:14;;;;;;;36.38;23.65;;;3.80;99.90;;;;;;5076181;28;20100;-85
2023/01/29 06:10:39;;;;;;;33.00;22.85;;;3.80;99.90;;;;;;5065771;28;20460;-83
2023/01/29 06:13:05;;;;;;;35.38;22.10;;;3.80;99.90;;;;;;5063185;28;20044;-83
2023/01/29 06:15:31;;;;;;;38.45;24.35;;;3.80;99.90;;;;;;5077597;28;20119;-83
2023/01/29 06:17:57;;;;;;;35.42;23.45;;;3.80;99.90;;;;;;5081760;28;20130;-83
2023/01/29 06:20:23;;;;;;;37.58;23.70;;;3.90;99.90;;;;;;5085160;28;20057;-83
2023/01/29 06:22:49;;;;;;;34.25;22.98;;;3.90;99.90;;;;;;5060731;28;20634;-83
2023/01/29 06:25:14;;;;;;;36.38;21.95;;;3.90;99.90;;;;;;5075424;28;20063;-87
2023/01/29 06:27:40;;;;;;;37.70;24.17;;;3.90;99.90;;;;;;5061800;28;20112;-83
2023/01/29 06:30:07;;;;;;;36.17;24.30;;;3.90;99.90;;;;;;5077830;28;20051;-83
2023/01/29 06:32:32;;;;;;;35.15;23.30;;;3.90;99.90;;;;;;5094075;28;20048;-80
2023/01/29 06:35:01;;;;;;;36.70;22.77;;;3.90;99.90;;;;;;5064055;28;20127;-80
2023/01/29 06:37:27;;;;;;;37.88;22.73;;;4.00;99.90;;;;;;5040698;28;20106;-84
2023/01/29 06:39:52;;;;;;;34.50;22.80;;;4.00;99.90;;;;;;5066161;28;20040;-83
2023/01/29 06:42:19;;;;;;;33.95;23.58;;;4.10;99.90;;;;;;5077289;28;20040;-82
2023/01/29 06:44:45;;;;;;;36.05;23.50;;;4.10;99.90;;;;;;5044990;28;20048;-83
2023/01/29 06:47:10;;;;;;;33.38;21.20;;;4.00;99.90;;;;;;5069253;28;20505;-83
2023/01/29 06:49:36;;;;;;;34.17;23.85;;;4.00;99.90;;;;;;5054222;28;20058;-84
2023/01/29 06:52:02;;;;;;;32.70;22.30;;;4.00;99.90;;;;;;5083511;28;20452;-85
2023/01/29 06:54:28;;;;;;;34.25;24.05;;;4.00;99.90;;;;;;5076610;28;20048;-84
2023/01/29 06:56:55;;;;;;;36.42;23.85;;;4.00;99.90;;;;;;5055761;28;20051;-82
2023/01/29 06:59:20;;;;;;;34.95;24.23;;;4.10;99.90;;;;;;5080498;28;20120;-82
2023/01/29 07:01:46;;;;;;;34.13;24.02;;;4.10;99.90;;;;;;5057988;28;20105;-82
2023/01/29 07:04:12;;;;;;;34.53;23.80;;;4.10;99.90;;;;;;5092412;28;20043;-83
2023/01/29 07:06:37;;;;;;;36.55;23.95;;;4.10;99.90;;;;;;5058959;28;20051;-82
2023/01/29 07:09:03;;;;;;;39.55;25.63;;;4.00;99.90;;;;;;5075379;28;20050;-82
2023/01/29 07:11:30;;;;;;;35.28;22.20;;;4.10;99.90;;;;;;5096607;28;20044;-82
2023/01/29 07:13:55;;;;;;;37.15;25.05;;;4.00;99.90;;;;;;5082672;28;20050;-82
2023/01/29 07:16:22;;;;;;;42.42;26.08;;;4.00;99.90;;;;;;5056340;28;20040;-87
2023/01/29 07:18:48;;;;;;;35.83;24.35;;;4.00;99.90;;;;;;5074690;28;20392;-82
2023/01/29 07:21:13;;;;;;;40.55;25.23;;;4.10;99.90;;;;;;5085730;28;20032;-82
2023/01/29 07:23:39;;;;;;;41.13;26.85;;;4.00;99.90;;;;;;5079551;28;20130;-83
2023/01/29 07:26:06;;;;;;;39.97;25.70;;;4.00;99.90;;;;;;5027039;28;20127;-84
2023/01/29 07:28:35;;;;;;;33.90;21.73;;;4.00;99.90;;;;;;5058151;28;20088;-81
2023/01/29 07:31:01;;;;;;;40.35;25.75;;;4.00;99.90;;;;;;5093547;28;20051;-83
2023/01/29 07:33:26;;;;;;;37.15;26.30;;;4.00;99.90;;;;;;5076038;28;20052;-84
2023/01/29 07:35:52;;;;;;;40.10;25.23;;;4.00;99.90;;;;;;5089161;28;20500;-83
2023/01/29 07:38:19;;;;;;;41.10;26.95;;;4.00;99.90;;;;;;5050856;28;20051;-81
2023/01/29 07:40:44;;;;;;;41.05;25.83;;;4.00;99.90;;;;;;5057929;28;20043;-81
2023/01/29 07:43:32;;;;;;;38.30;25.75;;;4.00;99.90;;;;;;5056407;28;20118;-85
2023/01/29 07:46:16;;;;;;;43.95;26.85;;;4.00;99.90;;;;;;5073728;28;20051;-82
2023/01/29 07:48:41;;;;;;;40.92;27.10;;;4.00;99.90;;;;;;5075950;28;20075;-81
2023/01/29 07:51:07;;;;;;;41.15;26.98;;;4.00;99.90;;;;;;5047811;28;20086;-81
2023/01/29 07:53:33;;;;;;;44.10;28.13;;;3.90;99.90;;;;;;5089715;28;20040;-82
2023/01/29 07:55:58;;;;;;;47.35;28.63;;;4.00;99.90;;;;;;5055129;28;20040;-82
2023/01/29 07:58:24;;;;;;;41.47;27.23;;;3.80;99.90;;;;;;5053140;28;20494;-85
2023/01/29 08:00:50;;;;;;;45.15;26.85;;;3.80;99.90;;;;;;5073514;28;20051;-81
2023/01/29 08:03:19;;;;;;;44.80;27.20;;;3.70;99.90;;;;;;5082979;28;20039;-81
2023/01/29 08:05:45;;;;;;;45.08;28.63;;;3.60;99.90;;;;;;5074335;28;20048;-81
2023/01/29 08:08:11;;;;;;;43.45;28.45;;;3.50;99.90;;;;;;5068515;28;20056;-82
2023/01/29 08:10:38;;;;;;;45.05;28.23;;;3.50;99.90;;;;;;5052609;28;20078;-82
2023/01/29 08:13:05;;;;;;;45.60;28.38;;;3.50;99.90;;;;;;5074220;28;20111;-83
2023/01/29 08:15:31;;;;;;;49.17;29.65;;;3.50;99.90;;;;;;5040652;28;20405;-83
2023/01/29 08:17:57;;;;;;;47.65;28.75;;;3.70;99.90;;;;;;5078912;28;20039;-84
2023/01/29 08:20:24;;;;;;;39.40;26.27;;;3.60;99.90;;;;;;5097005;28;20047;-84
2023/01/29 08:22:56;;;;;;;47.20;29.77;;;3.60;99.90;;;;;;5089176;28;20032;-84
2023/01/29 08:25:22;;;;;;;43.80;28.45;;;3.70;99.90;;;;;;5062620;28;20407;-84
2023/01/29 08:27:49;;;;;;;45.63;28.80;;;3.80;99.90;;;;;;5078341;28;20047;-83
2023/01/29 08:30:15;;;;;;;47.33;29.05;;;3.80;99.90;;;;;;5095126;28;20105;-84
2023/01/29 08:32:40;;;;;;;42.17;27.95;;;3.80;99.90;;;;;;5077850;28;20493;-83
2023/01/29 08:35:06;;;;;;;47.08;29.83;;;4.00;99.90;;;;;;5074592;28;20048;-83
2023/01/29 08:37:35;;;;;;;43.90;27.95;;;4.00;99.90;;;;;;5090767;28;20131;-85
2023/01/29 08:40:02;;;;;;;45.15;27.35;;;4.10;99.90;;;;;;5058339;28;20040;-82
2023/01/29 08:42:27;;;;;;;38.55;23.95;;;4.10;99.90;;;;;;5055004;28;20055;-83
2023/01/29 08:44:53;;;;;;;48.60;29.23;;;4.20;99.90;;;;;;5073617;28;20052;-83
2023/01/29 08:47:19;;;;;;;43.53;25.20;;;4.20;99.90;;;;;;5057593;28;20044;-83
2023/01/29 08:49:44;;;;;;;42.65;27.17;;;4.20;99.90;;;;;;5032572;28;20051;-84
2023/01/29 08:52:10;;;;;;;45.17;26.58;;;4.20;99.90;;;;;;5073548;28;20135;-86
2023/01/29 08:54:36;;;;;;;45.95;29.33;;;4.30;99.90;;;;;;5076742;28;20101;-86
2023/01/29 08:57:02;;;;;;;45.67;27.80;;;4.30;99.90;;;;;;5074635;28;20512;-86
2023/01/29 08:59:27;;;;;;;47.20;28.08;;;4.40;99.90;;;;;;5069908;28;20061;-87
2023/01/29 09:01:53;;;;;;;45.10;27.48;;;4.50;99.90;;;;;;5055465;28;20489;-86
2023/01/29 09:04:19;;;;;;;42.65;26.73;;;4.50;99.90;;;;;;5060064;28;20071;-86
2023/01/29 09:06:44;;;;;;;45.88;27.67;;;4.50;99.90;;;;;;5091343;28;20104;-83
2023/01/29 09:09:10;;;;;;;48.47;27.33;;;4.50;99.90;;;;;;5081049;28;20044;-87
2023/01/29 09:11:37;;;;;;;48.47;27.58;;;4.50;99.90;;;;;;5049394;28;20569;-89
2023/01/29 09:14:02;;;;;;;43.00;26.13;;;4.50;99.90;;;;;;5028324;28;20046;-83
2023/01/29 09:16:28;;;;;;;43.05;26.58;;;4.60;99.90;;;;;;5059311;28;20047;-85
2023/01/29 09:18:53;;;;;;;42.22;24.52;;;4.60;99.90;;;;;;5089470;28;20039;-86
2023/01/29 09:21:19;;;;;;;45.13;27.23;;;4.60;99.90;;;;;;5054624;28;20110;-86
2023/01/29 09:23:45;;;;;;;44.63;25.83;;;4.70;99.90;;;;;;5055738;28;20043;-87
2023/01/29 09:26:11;;;;;;;44.83;26.85;;;4.80;99.90;;;;;;5060429;28;20055;-89
2023/01/29 09:28:36;;;;;;;43.95;26.08;;;4.80;99.90;;;;;;5077837;28;20090;-86
2023/01/29 09:31:03;;;;;;;40.28;23.80;;;4.70;99.90;;;;;;5077163;28;20047;-86
2023/01/29 09:33:29;;;;;;;44.33;24.98;;;4.80;99.90;;;;;;5075664;28;20032;-85
2023/01/29 09:35:55;;;;;;;42.22;26.17;;;4.90;99.90;;;;;;5088720;28;20040;-87
2023/01/29 09:38:21;;;;;;;43.67;26.70;;;5.00;99.90;;;;;;5068359;28;20497;-88
2023/01/29 09:40:54;;;;;;;42.38;25.88;;;5.00;99.90;;;;;;5058418;28;20105;-87
2023/01/29 09:43:26;;;;;;;41.65;24.25;;;4.90;99.90;;;;;;5085754;28;20055;-85
2023/01/29 09:45:58;;;;;;;42.22;26.77;;;5.00;99.90;;;;;;5075962;28;20075;-87
2023/01/29 09:48:31;;;;;;;39.65;23.63;;;4.90;99.90;;;;;;5090454;28;20404;-89
2023/01/29 09:51:01;;;;;;;40.10;23.05;;;4.90;99.90;;;;;;5078833;28;20409;-88
2023/01/29 09:53:53;;;;;;;43.05;24.08;;;4.90;99.90;;;;;;5075194;28;20057;-87
2023/01/29 09:56:21;;;;;;;46.53;26.60;;;4.90;99.90;;;;;;5071996;28;20039;-87
2023/01/29 09:58:47;;;;;;;45.67;25.55;;;4.90;99.90;;;;;;5108102;28;20054;-83
2023/01/29 10:01:16;;;;;;;41.83;26.48;;;5.00;99.90;;;;;;5092332;28;20142;-85
2023/01/29 10:04:00;;;;;;;42.95;25.98;;;5.00;99.90;;;;;;5075783;28;20078;-87
2023/01/29 10:06:54;;;;;;;43.15;26.02;;;5.10;99.90;;;;;;5074874;28;20094;-88
2023/01/29 10:09:37;;;;;;;44.92;26.05;;;5.10;99.90;;;;;;5070680;28;20097;-87
2023/01/29 10:12:25;;;;;;;39.60;24.23;;;5.10;99.90;;;;;;5075900;28;20048;-87
2023/01/29 10:14:57;;;;;;;39.13;23.80;;;5.00;99.90;;;;;;5076435;28;20040;-82
2023/01/29 10:17:44;;;;;;;45.63;26.27;;;4.90;99.90;;;;;;5068072;28;20051;-84
2023/01/29 10:20:31;;;;;;;42.90;25.85;;;4.90;99.90;;;;;;5081300;28;20104;-82
2023/01/29 10:23:15;;;;;;;47.28;27.88;;;4.80;99.90;;;;;;5073968;28;20047;-84
2023/01/29 10:25:43;;;;;;;45.42;25.75;;;4.80;99.90;;;;;;5104393;28;20051;-81
2023/01/29 10:28:33;;;;;;;45.50;25.65;;;4.90;99.90;;;;;;5075015;28;20035;-80
2023/01/29 10:31:11;;;;;;;46.25;26.85;;;4.80;99.90;;;;;;5094298;28;20358;-83
2023/01/29 10:33:52;;;;;;;52.00;29.33;;;4.80;99.90;;;;;;5096041;28;20084;-83
2023/01/29 10:36:43;;;;;;;45.58;28.38;;;4.80;99.90;;;;;;5080506;28;20040;-82
2023/01/29 10:39:38;;;;;;;44.45;26.85;;;4.80;99.90;;;;;;5060709;28;20169;-84
2023/01/29 10:42:29;;;;;;;45.60;26.90;;;4.70;99.90;;;;;;5089180;28;20492;-81
2023/01/29 10:45:14;;;;;;;49.67;28.02;;;4.60;99.90;;;;;;5078765;28;20442;-82
2023/01/29 10:47:51;;;;;;;44.38;25.65;;;4.60;99.90;;;;;;5073202;28;20086;-82
2023/01/29 10:50:22;;;;;;;49.10;28.48;;;4.60;99.90;;;;;;5076388;28;20044;-80
2023/01/29 10:52:54;;;;;;;46.97;28.00;;;4.50;99.90;;;;;;5074194;28;20072;-82
2023/01/29 10:55:38;;;;;;;49.03;28.52;;;4.60;99.90;;;;;;5078149;28;20046;-81
2023/01/29 10:58:24;;;;;;;49.97;28.67;;;4.60;99.90;;;;;;5089019;28;20040;-80
2023/01/29 11:00:51;;;;;;;44.90;27.25;;;4.60;99.90;;;;;;5075665;28;20036;-80
2023/01/29 11:03:25;;;;;;;47.20;28.95;;;4.50;99.90;;;;;;5106055;28;20122;-79
2023/01/29 11:06:18;;;;;;;46.40;27.25;;;4.60;99.90;;;;;;5077220;28;20055;-85
2023/01/29 11:09:12;;;;;;;48.20;27.92;;;4.60;99.90;;;;;;5077456;28;20044;-79
2023/01/29 11:12:14;;;;;;;49.03;28.33;;;4.50;99.90;;;;;;5089174;28;20047;-79
2023/01/29 11:14:51;;;;;;;52.45;28.40;;;4.50;99.90;;;;;;5099218;28;20039;-79
2023/01/29 11:17:24;;;;;;;56.45;30.08;;;4.50;99.90;;;;;;5093944;28;20056;-80
2023/01/29 11:19:54;;;;;;;47.55;26.42;;;4.60;99.90;;;;;;5059950;28;20130;-82
2023/01/29 11:22:25;;;;;;;55.63;30.77;;;4.60;99.90;;;;;;5074513;28;20035;-80
2023/01/29 11:25:11;;;;;;;53.20;30.23;;;4.60;99.90;;;;;;5072565;28;20044;-80
2023/01/29 11:27:46;;;;;;;53.73;28.07;;;4.60;99.90;;;;;;5073427;28;20450;-79
2023/01/29 11:30:32;;;;;;;51.80;30.58;;;4.60;99.90;;;;;;5076921;28;20288;-82
2023/01/29 11:33:22;;;;;;;51.47;28.08;;;4.60;99.90;;;;;;5064101;28;20047;-81
2023/01/29 11:35:48;;;;;;;58.90;31.15;;;4.60;99.90;;;;;;5091607;28;20040;-82
2023/01/29 11:38:22;;;;;;;58.00;32.25;;;4.50;99.90;;;;;;5058923;28;20214;-81
2023/01/29 11:40:48;;;;;;;54.30;30.30;;;4.50;99.90;;;;;;5074465;28;20094;-79
2023/01/29 11:43:26;;;;;;;60.28;32.55;;;4.60;99.90;;;;;;5061964;28;20044;-81
2023/01/29 11:45:56;;;;;;;61.83;33.90;;;4.60;99.90;;;;;;5087839;28;20128;-82
2023/01/29 11:48:44;;;;;;;62.15;30.38;;;4.80;99.90;;;;;;5068161;28;20147;-83
2023/01/29 11:51:19;;;;;;;63.63;33.90;;;4.70;99.90;;;;;;5067689;28;20127;-82
2023/01/29 11:53:51;;;;;;;56.08;30.42;;;4.70;99.90;;;;;;5078480;28;20041;-80
2023/01/29 11:56:29;;;;;;;65.53;33.65;;;4.70;99.90;;;;;;5069043;28;20524;-81
2023/01/29 11:58:56;;;;;;;58.35;32.10;;;4.60;99.90;;;;;;5061177;28;20052;-82
2023/01/29 12:01:38;;;;;;;54.88;32.17;;;4.60;99.90;;;;;;5070866;28;20101;-82
2023/01/29 12:04:19;;;;;;;56.97;31.92;;;4.60;99.90;;;;;;5070973;28;20041;-81
2023/01/29 12:06:50;;;;;;;67.18;34.72;;;4.60;99.90;;;;;;5073254;28;20065;-80
2023/01/29 12:09:28;;;;;;;55.40;30.95;;;4.70;99.90;;;;;;5066777;28;20044;-82
2023/01/29 12:11:54;;;;;;;54.72;31.02;;;4.70;99.90;;;;;;5066121;28;20051;-82
2023/01/29 12:14:32;;;;;;;54.97;30.23;;;4.90;99.90;;;;;;5068477;28;20098;-82
2023/01/29 12:17:12;;;;;;;51.85;29.27;;;4.90;99.90;;;;;;5064722;28;20098;-81
2023/01/29 12:19:41;;;;;;;43.30;24.48;;;5.00;99.90;;;;;;5068489;28;20047;-83
2023/01/29 12:22:23;;;;;;;40.65;25.50;;;5.00;99.90;;;;;;5086011;28;20481;-80
2023/01/29 12:25:06;;;;;;;38.00;22.33;;;5.10;99.90;;;;;;5077767;28;20048;-80
2023/01/29 12:27:43;;;;;;;48.72;29.95;;;5.10;99.90;;;;;;5074726;28;20139;-85
2023/01/29 12:30:49;;;;;;;48.10;27.20;;;5.10;99.90;;;;;;5083109;28;20520;-80
2023/01/29 12:33:37;;;;;;;51.95;27.88;;;5.20;99.90;;;;;;5003524;28;20091;-80
2023/01/29 12:36:20;;;;;;;42.67;25.23;;;5.20;99.90;;;;;;5073375;28;20055;-85
2023/01/29 12:38:46;;;;;;;46.72;27.20;;;5.20;99.90;;;;;;5069692;28;20055;-80
2023/01/29 12:41:35;;;;;;;45.63;26.58;;;5.20;99.90;;;;;;5035642;28;20748;-81
2023/01/29 12:44:13;;;;;;;46.08;26.95;;;5.20;99.90;;;;;;5057322;28;20059;-80
2023/01/29 12:46:59;;;;;;;45.25;27.55;;;5.20;99.90;;;;;;5080891;28;20049;-80
2023/01/29 12:49:30;;;;;;;47.92;27.80;;;5.40;99.90;;;;;;5070462;28;20048;-82
2023/01/29 12:52:14;;;;;;;39.13;24.42;;;5.30;99.90;;;;;;5084751;28;20052;-80
2023/01/29 12:54:59;;;;;;;39.28;23.77;;;5.30;99.90;;;;;;5086857;28;20078;-79
2023/01/29 12:57:51;;;;;;;40.92;25.65;;;5.40;99.90;;;;;;5063830;28;20048;-80
2023/01/29 13:00:22;;;;;;;37.78;23.15;;;5.30;99.90;;;;;;5085672;28;20542;-79
2023/01/29 13:03:00;;;;;;;43.03;25.20;;;5.40;99.90;;;;;;5069576;28;20044;-81
2023/01/29 13:05:33;;;;;;;36.83;23.30;;;5.30;99.90;;;;;;5067533;28;20201;-81
2023/01/29 13:08:22;;;;;;;44.42;24.20;;;5.30;99.90;;;;;;5080009;28;20045;-80
2023/01/29 13:10:51;;;;;;;41.03;23.90;;;5.30;99.90;;;;;;5069163;28;20060;-79
2023/01/29 13:13:19;;;;;;;44.17;26.05;;;5.40;99.90;;;;;;5084306;28;20051;-79
2023/01/29 13:15:46;;;;;;;47.72;26.20;;;5.30;99.90;;;;;;5080846;28;20535;-81
2023/01/29 13:18:44;;;;;;;46.45;26.73;;;5.30;99.90;;;;;;5068090;28;20493;-79
2023/01/29 13:21:35;;;;;;;41.35;25.63;;;5.30;99.90;;;;;;5077097;28;20615;-82
2023/01/29 13:24:22;;;;;;;46.25;28.02;;;5.20;99.90;;;;;;5070885;28;20056;-82
2023/01/29 13:26:48;;;;;;;46.72;28.20;;;5.10;99.90;;;;;;5063965;28;20050;-81
2023/01/29 13:29:24;;;;;;;43.30;25.00;;;5.10;99.90;;;;;;5072050;28;20105;-81
2023/01/29 13:31:52;;;;;;;40.38;23.88;;;5.10;99.90;;;;;;5080735;28;20036;-81
2023/01/29 13:34:45;;;;;;;49.53;30.67;;;5.00;99.90;;;;;;5054548;28;20044;-80